Time;durP1;ratioP1;P1;durP2;ratioP2;P2;SDS_P1;SDS_P2;PMS_P1;PMS_P2;Temp;Humidity;BMP_temperature;BMP_pressure;BME280_temperature;BME280_humidity;BME280_pressure;Samples;Min_cycle;Max_cycle;Signal;HPM_P1;HPM_P2
2023/05/20 00:01:12;;;;;;;10.75;2.47;;;10.50;99.90;;;;;;5047115;28;20040;-84
2023/05/20 00:03:38;;;;;;;8.82;3.13;;;11.10;99.90;;;;;;5063436;28;20115;-84
2023/05/20 00:06:04;;;;;;;10.23;3.08;;;10.50;99.90;;;;;;5064359;28;20041;-84
2023/05/20 00:08:30;;;;;;;8.00;3.40;;;10.50;99.90;;;;;;5062859;28;20048;-83
2023/05/20 00:10:55;;;;;;;5.30;2.65;;;10.50;99.90;;;;;;5047944;28;20144;-83
2023/05/20 00:13:23;;;;;;;5.97;2.78;;;10.40;99.90;;;;;;5062627;28;20056;-83
2023/05/20 00:15:48;;;;;;;6.22;2.35;;;10.40;99.90;;;;;;5030862;28;20052;-83
2023/05/20 00:18:14;;;;;;;10.65;2.33;;;10.40;99.90;;;;;;5063490;28;20048;-83
2023/05/20 00:20:40;;;;;;;10.20;3.05;;;10.40;99.90;;;;;;5046705;28;20049;-83
2023/05/20 00:23:05;;;;;;;9.20;2.78;;;10.50;99.90;;;;;;5064234;28;20047;-83
2023/05/20 00:25:31;;;;;;;6.35;2.85;;;10.40;99.90;;;;;;5045940;28;21025;-84
2023/05/20 00:27:57;;;;;;;6.35;2.88;;;11.00;99.90;;;;;;5064112;28;20063;-84
2023/05/20 00:30:23;;;;;;;12.52;2.17;;;10.40;99.90;;;;;;5062430;28;20409;-83
2023/05/20 00:32:48;;;;;;;5.05;2.53;;;10.30;99.90;;;;;;5063543;28;20397;-83
2023/05/20 00:35:14;;;;;;;7.72;2.42;;;10.30;99.90;;;;;;5047074;28;20049;-83
2023/05/20 00:37:40;;;;;;;9.00;2.72;;;11.00;99.90;;;;;;5046199;28;20397;-83
2023/05/20 00:40:06;;;;;;;9.80;3.58;;;10.30;99.90;;;;;;5030339;28;20051;-83
2023/05/20 00:42:32;;;;;;;10.88;3.20;;;10.30;99.90;;;;;;5046070;28;20071;-83
2023/05/20 00:44:59;;;;;;;6.40;3.05;;;10.60;99.90;;;;;;5047079;28;20040;-83
2023/05/20 00:47:28;;;;;;;10.98;3.40;;;10.20;99.90;;;;;;5045228;28;20084;-84
2023/05/20 00:49:55;;;;;;;7.35;2.90;;;10.60;99.90;;;;;;5063240;28;20041;-83
2023/05/20 00:52:21;;;;;;;7.47;3.22;;;10.50;99.90;;;;;;5045995;28;20132;-83
2023/05/20 00:54:48;;;;;;;5.28;2.80;;;10.10;99.90;;;;;;5062409;28;20052;-83
2023/05/20 00:57:15;;;;;;;10.55;3.25;;;10.10;99.90;;;;;;5063600;28;20436;-84
2023/05/20 00:59:41;;;;;;;9.13;2.63;;;10.20;99.90;;;;;;5045933;28;20044;-83
2023/05/20 01:02:07;;;;;;;11.02;2.80;;;10.10;99.90;;;;;;5047086;28;20505;-83
2023/05/20 01:04:33;;;;;;;9.70;2.42;;;10.10;99.90;;;;;;5045499;28;20395;-83
2023/05/20 01:07:03;;;;;;;7.45;2.45;;;10.10;99.90;;;;;;5029871;28;20154;-83
2023/05/20 01:09:30;;;;;;;4.88;2.75;;;10.00;99.90;;;;;;5062335;28;20482;-83
2023/05/20 01:12:14;;;;;;;8.10;3.40;;;10.00;99.90;;;;;;5062658;28;20113;-84
2023/05/20 01:14:49;;;;;;;4.82;2.65;;;10.00;99.90;;;;;;5063050;28;20056;-83
2023/05/20 01:17:19;;;;;;;7.00;2.97;;;9.90;99.90;;;;;;5045203;28;20045;-84
2023/05/20 01:19:47;;;;;;;7.43;3.28;;;9.90;99.90;;;;;;5062792;28;20052;-84
2023/05/20 01:22:14;;;;;;;9.32;2.80;;;9.90;99.90;;;;;;5062574;28;20045;-84
2023/05/20 01:24:47;;;;;;;12.43;3.53;;;9.90;99.90;;;;;;5045259;28;20080;-84
2023/05/20 01:27:13;;;;;;;8.83;3.00;;;9.90;99.90;;;;;;5045508;28;20060;-84
2023/05/20 01:29:41;;;;;;;6.47;3.00;;;10.30;99.90;;;;;;5061537;28;20051;-84
2023/05/20 01:32:16;;;;;;;7.88;3.13;;;10.20;99.90;;;;;;5063111;28;20082;-84
2023/05/20 01:34:44;;;;;;;7.03;2.65;;;9.80;99.90;;;;;;5061515;28;20040;-84
2023/05/20 01:37:11;;;;;;;6.13;3.10;;;9.80;99.90;;;;;;5046029;28;20124;-84
2023/05/20 01:39:40;;;;;;;7.57;3.20;;;10.10;99.90;;;;;;5062072;28;20053;-81
2023/05/20 01:42:10;;;;;;;6.20;3.17;;;10.20;99.90;;;;;;5062478;28;20049;-82
2023/05/20 01:44:36;;;;;;;7.05;3.03;;;9.70;99.90;;;;;;5046943;28;20459;-82
2023/05/20 01:47:02;;;;;;;7.68;3.88;;;9.70;99.90;;;;;;5061745;28;20063;-82
2023/05/20 01:49:28;;;;;;;6.63;3.08;;;9.70;99.90;;;;;;5062642;28;20045;-82
2023/05/20 01:51:54;;;;;;;6.88;3.30;;;9.70;99.90;;;;;;5061795;28;20057;-82
2023/05/20 01:54:20;;;;;;;7.65;2.88;;;9.90;99.90;;;;;;5045755;28;20665;-82
2023/05/20 01:56:46;;;;;;;11.30;3.58;;;9.60;99.90;;;;;;5045380;28;20050;-83
2023/05/20 01:59:12;;;;;;;6.55;3.38;;;10.50;99.90;;;;;;5044778;28;20063;-83
2023/05/20 02:01:37;;;;;;;7.55;3.50;;;9.60;99.90;;;;;;5045737;28;20041;-83
2023/05/20 02:04:03;;;;;;;9.63;2.88;;;10.30;99.90;;;;;;5047655;28;20048;-83
2023/05/20 02:06:29;;;;;;;9.45;2.72;;;9.60;99.90;;;;;;5050148;28;20051;-83
2023/05/20 02:08:55;;;;;;;8.50;3.75;;;9.60;99.90;;;;;;5031681;28;20059;-83
2023/05/20 02:11:21;;;;;;;6.60;3.05;;;9.50;99.90;;;;;;5049911;28;20044;-83
2023/05/20 02:13:46;;;;;;;9.13;2.80;;;9.60;99.90;;;;;;5065677;28;20130;-83
2023/05/20 02:16:12;;;;;;;6.45;2.83;;;9.50;99.90;;;;;;5065311;28;20040;-83
2023/05/20 02:18:38;;;;;;;7.03;2.75;;;9.50;99.90;;;;;;5050132;28;20056;-83
2023/05/20 02:21:04;;;;;;;4.25;2.33;;;10.30;99.90;;;;;;5064634;28;20074;-83
2023/05/20 02:23:30;;;;;;;6.30;3.08;;;9.50;99.90;;;;;;5050201;28;20493;-83
2023/05/20 02:25:56;;;;;;;5.65;2.80;;;9.90;99.90;;;;;;5048144;28;20127;-83
2023/05/20 02:28:22;;;;;;;5.85;3.10;;;9.50;99.90;;;;;;5065405;28;20140;-83
2023/05/20 02:30:50;;;;;;;12.38;3.10;;;10.10;99.90;;;;;;5049204;28;20459;-83
2023/05/20 02:33:16;;;;;;;5.75;2.97;;;9.40;99.90;;;;;;5049136;28;20497;-83
2023/05/20 02:35:42;;;;;;;6.88;2.63;;;9.40;99.90;;;;;;5032929;28;20478;-83
2023/05/20 02:38:07;;;;;;;7.05;2.47;;;9.40;99.90;;;;;;5047788;28;20134;-83
2023/05/20 02:40:33;;;;;;;7.15;2.83;;;9.40;99.90;;;;;;5016356;28;20089;-83
2023/05/20 02:43:00;;;;;;;5.18;2.80;;;10.30;99.90;;;;;;5047758;28;20076;-82
2023/05/20 02:45:26;;;;;;;5.70;2.60;;;9.40;99.90;;;;;;5065632;28;20044;-82
2023/05/20 02:47:51;;;;;;;5.90;2.33;;;9.80;99.90;;;;;;5065145;28;20051;-83
2023/05/20 02:50:17;;;;;;;5.82;3.50;;;9.40;99.90;;;;;;5048224;28;20135;-82
2023/05/20 02:52:44;;;;;;;6.20;2.53;;;9.40;99.90;;;;;;5065834;28;20052;-82
2023/05/20 02:55:10;;;;;;;3.33;2.38;;;9.40;99.90;;;;;;5064853;28;20123;-82
2023/05/20 02:57:39;;;;;;;7.25;2.70;;;9.40;99.90;;;;;;5033122;28;20055;-82
2023/05/20 03:00:12;;;;;;;5.97;2.80;;;9.50;99.90;;;;;;5048132;28;20513;-82
2023/05/20 03:02:38;;;;;;;5.53;2.45;;;9.50;99.90;;;;;;5049066;28;20127;-82
2023/05/20 03:05:04;;;;;;;6.50;2.60;;;9.80;99.90;;;;;;5064850;28;20041;-81
2023/05/20 03:07:33;;;;;;;7.45;2.55;;;9.50;99.90;;;;;;5064823;28;20051;-82
2023/05/20 03:09:58;;;;;;;5.45;2.33;;;9.50;99.90;;;;;;5032380;28;20040;-82
2023/05/20 03:12:25;;;;;;;6.85;2.53;;;9.90;99.90;;;;;;5030601;28;20054;-83
2023/05/20 03:14:54;;;;;;;5.78;2.33;;;10.00;99.90;;;;;;5065338;28;20726;-83
2023/05/20 03:17:22;;;;;;;6.00;2.20;;;9.50;99.90;;;;;;5063857;28;20066;-82
2023/05/20 03:19:47;;;;;;;5.88;1.88;;;9.50;99.90;;;;;;5064675;28;20105;-82
2023/05/20 03:22:13;;;;;;;5.15;2.28;;;9.50;99.90;;;;;;5064374;28;20036;-83
2023/05/20 03:24:39;;;;;;;8.25;2.00;;;10.80;99.90;;;;;;5064751;28;20078;-82
2023/05/20 03:27:05;;;;;;;3.95;2.33;;;9.50;99.90;;;;;;5047873;28;20542;-83
2023/05/20 03:29:32;;;;;;;5.15;2.05;;;9.50;99.90;;;;;;5063503;28;20041;-83
2023/05/20 03:31:58;;;;;;;3.67;1.80;;;9.50;99.90;;;;;;5032673;28;20036;-84
2023/05/20 03:34:23;;;;;;;5.68;1.92;;;9.40;99.90;;;;;;5046866;28;20044;-84
2023/05/20 03:36:50;;;;;;;6.70;2.78;;;9.40;99.90;;;;;;5031824;28;20078;-83
2023/05/20 03:39:16;;;;;;;9.30;2.15;;;9.40;99.90;;;;;;5064813;28;20611;-84
2023/05/20 03:41:41;;;;;;;4.20;1.55;;;9.70;99.90;;;;;;5063906;28;20135;-84
2023/05/20 03:44:07;;;;;;;3.80;1.83;;;9.40;99.90;;;;;;5064727;28;20032;-83
2023/05/20 03:46:33;;;;;;;3.35;1.58;;;9.40;99.90;;;;;;5063154;28;20048;-84
2023/05/20 03:49:00;;;;;;;3.17;1.60;;;9.50;99.90;;;;;;5032318;28;20041;-83
2023/05/20 03:51:26;;;;;;;6.82;2.05;;;9.50;99.90;;;;;;5030581;28;20080;-83
2023/05/20 03:53:52;;;;;;;3.05;1.80;;;10.00;99.90;;;;;;5047749;28;20044;-84
2023/05/20 03:56:18;;;;;;;5.22;1.88;;;9.60;99.90;;;;;;5047581;28;20098;-83
2023/05/20 03:58:44;;;;;;;2.58;1.35;;;9.70;99.90;;;;;;5047159;28;20044;-83
2023/05/20 04:01:12;;;;;;;2.50;1.30;;;9.70;99.90;;;;;;5014707;28;20045;-83
2023/05/20 04:03:38;;;;;;;3.58;1.70;;;9.80;99.90;;;;;;5047253;28;20071;-83
2023/05/20 04:06:03;;;;;;;3.67;1.67;;;9.80;99.90;;;;;;5048366;28;20517;-83
2023/05/20 04:08:29;;;;;;;6.13;1.55;;;9.90;99.90;;;;;;5046397;28;20088;-83
2023/05/20 04:10:56;;;;;;;4.43;1.38;;;10.50;99.90;;;;;;5064550;28;20036;-83
2023/05/20 04:13:24;;;;;;;4.18;1.48;;;10.00;99.90;;;;;;5047129;28;20055;-83
2023/05/20 04:15:51;;;;;;;2.95;1.63;;;10.00;99.90;;;;;;5063734;28;20048;-83
2023/05/20 04:18:17;;;;;;;3.50;1.30;;;10.10;99.90;;;;;;5047282;28;20045;-83
2023/05/20 04:20:45;;;;;;;2.88;0.98;;;10.80;99.90;;;;;;5062505;28;20043;-83
2023/05/20 04:23:11;;;;;;;2.13;1.20;;;10.20;99.90;;;;;;5047922;28;20086;-82
2023/05/20 04:25:37;;;;;;;2.17;1.27;;;10.30;99.90;;;;;;5062627;28;20131;-82
2023/05/20 04:28:03;;;;;;;2.67;1.05;;;10.70;99.90;;;;;;5063642;28;20056;-83
2023/05/20 04:30:32;;;;;;;3.40;1.33;;;10.40;99.90;;;;;;5046681;28;20044;-82
2023/05/20 04:33:01;;;;;;;2.75;1.20;;;10.20;99.90;;;;;;5046373;28;20053;-83
2023/05/20 04:35:28;;;;;;;4.53;1.20;;;10.50;99.90;;;;;;5063948;28;20284;-83
2023/05/20 04:37:54;;;;;;;2.38;1.00;;;10.60;99.90;;;;;;5062259;28;20044;-83
2023/05/20 04:40:20;;;;;;;1.40;0.85;;;10.60;99.90;;;;;;5064164;28;20052;-82
2023/05/20 04:42:46;;;;;;;2.08;0.82;;;10.70;99.90;;;;;;5062599;28;20095;-82
2023/05/20 04:45:12;;;;;;;2.63;0.95;;;10.80;99.90;;;;;;5063623;28;20048;-82
2023/05/20 04:47:38;;;;;;;1.80;1.00;;;10.80;99.90;;;;;;5013252;28;20060;-82
2023/05/20 04:50:10;;;;;;;3.47;1.00;;;10.80;99.90;;;;;;5062483;28;20116;-82
2023/05/20 04:52:37;;;;;;;5.05;1.10;;;11.00;99.90;;;;;;5047267;28;20049;-83
2023/05/20 04:55:09;;;;;;;6.90;1.30;;;10.90;99.90;;;;;;5062573;28;20440;-83
2023/05/20 04:57:37;;;;;;;3.38;1.00;;;11.00;99.90;;;;;;5046802;28;20508;-83
2023/05/20 05:00:06;;;;;;;2.35;0.70;;;11.60;99.90;;;;;;5046067;28;20052;-83
2023/05/20 05:02:32;;;;;;;2.13;0.85;;;11.10;99.90;;;;;;5063087;28;20041;-83
2023/05/20 05:04:58;;;;;;;3.08;1.08;;;11.10;99.90;;;;;;5063517;28;20044;-83
2023/05/20 05:07:24;;;;;;;2.97;0.80;;;11.20;99.90;;;;;;5062333;28;20083;-83
2023/05/20 05:09:49;;;;;;;3.85;0.60;;;11.20;99.90;;;;;;5046813;28;20041;-83
2023/05/20 05:12:15;;;;;;;4.30;0.90;;;11.20;99.90;;;;;;5062309;28;20063;-83
2023/05/20 05:14:41;;;;;;;1.75;0.70;;;11.30;99.90;;;;;;5063610;28;20045;-84
2023/05/20 05:17:07;;;;;;;1.02;0.75;;;11.30;99.90;;;;;;5045895;28;20052;-83
2023/05/20 05:19:32;;;;;;;1.10;0.70;;;11.40;99.90;;;;;;5046080;28;20143;-81
2023/05/20 05:21:58;;;;;;;1.52;1.00;;;11.50;99.90;;;;;;5030048;28;20084;-82
2023/05/20 05:24:24;;;;;;;2.15;0.93;;;11.50;99.90;;;;;;5062871;28;20037;-82
2023/05/20 05:26:53;;;;;;;2.50;0.88;;;11.80;99.90;;;;;;5046271;28;20686;-82
2023/05/20 05:29:19;;;;;;;1.20;0.60;;;12.00;99.90;;;;;;5062166;28;20080;-82
2023/05/20 05:31:44;;;;;;;1.30;0.52;;;12.10;99.90;;;;;;5063812;28;20083;-82
2023/05/20 05:34:10;;;;;;;2.15;0.63;;;12.30;99.90;;;;;;5062527;28;20040;-81
2023/05/20 05:36:38;;;;;;;1.15;0.63;;;12.50;99.90;;;;;;5029376;28;20533;-82
2023/05/20 05:39:04;;;;;;;3.20;0.60;;;12.60;99.90;;;;;;5046142;28;20046;-84
2023/05/20 05:41:30;;;;;;;1.65;0.55;;;12.70;99.90;;;;;;5062235;28;20047;-82
2023/05/20 05:43:57;;;;;;;1.08;0.45;;;12.80;99.90;;;;;;5045926;28;20044;-81
2023/05/20 05:46:22;;;;;;;1.05;0.52;;;12.80;99.90;;;;;;5062454;28;20371;-82
2023/05/20 05:48:49;;;;;;;2.22;0.65;;;12.90;99.90;;;;;;5046755;28;20048;-82
2023/05/20 05:51:16;;;;;;;1.02;0.50;;;13.00;99.90;;;;;;5045314;28;20058;-82
2023/05/20 05:53:41;;;;;;;2.90;0.70;;;13.00;99.90;;;;;;5046146;28;20634;-83
2023/05/20 05:56:09;;;;;;;0.88;0.50;;;13.00;99.90;;;;;;5062872;28;20072;-82
2023/05/20 05:58:34;;;;;;;0.90;0.50;;;13.10;99.90;;;;;;5046306;28;20037;-82
2023/05/20 06:01:00;;;;;;;1.30;0.40;;;13.10;99.90;;;;;;5062602;28;20049;-82
2023/05/20 06:03:28;;;;;;;2.22;0.60;;;13.10;99.90;;;;;;5061641;28;20051;-82
2023/05/20 06:05:54;;;;;;;0.75;0.40;;;13.20;99.90;;;;;;5047029;28;20048;-82
2023/05/20 06:08:20;;;;;;;1.30;0.52;;;13.20;99.90;;;;;;5045114;28;20041;-83
2023/05/20 06:10:49;;;;;;;2.38;0.55;;;13.30;99.90;;;;;;5046013;28;20071;-82
2023/05/20 06:13:15;;;;;;;1.13;0.50;;;13.30;99.90;;;;;;5062078;28;20486;-82
2023/05/20 06:15:41;;;;;;;0.95;0.50;;;13.30;99.90;;;;;;5062357;28;20124;-82
2023/05/20 06:18:07;;;;;;;1.08;0.40;;;12.30;99.90;;;;;;5046242;28;20545;-82
2023/05/20 06:20:33;;;;;;;2.35;0.70;;;13.40;99.90;;;;;;5044993;28;20693;-82
2023/05/20 06:22:58;;;;;;;1.50;0.50;;;13.50;99.90;;;;;;5045979;28;20118;-82
2023/05/20 06:25:24;;;;;;;1.30;0.65;;;13.50;99.90;;;;;;5061555;28;20517;-82
2023/05/20 06:27:50;;;;;;;0.70;0.40;;;13.60;99.90;;;;;;5045375;28;20095;-82
2023/05/20 06:30:16;;;;;;;3.75;0.60;;;13.60;99.90;;;;;;5062809;28;20110;-82
2023/05/20 06:32:42;;;;;;;3.05;0.50;;;13.70;99.90;;;;;;5045926;28;20041;-82
2023/05/20 06:35:08;;;;;;;1.52;0.57;;;13.80;99.90;;;;;;5062032;28;20110;-82
2023/05/20 06:37:34;;;;;;;1.08;0.50;;;13.80;99.90;;;;;;5062430;28;20059;-82
2023/05/20 06:40:00;;;;;;;1.42;0.50;;;13.80;99.90;;;;;;5046096;28;20033;-82
2023/05/20 06:42:25;;;;;;;1.00;0.43;;;13.90;99.90;;;;;;5044870;28;20036;-82
2023/05/20 06:44:51;;;;;;;1.67;0.63;;;14.00;99.90;;;;;;5062922;28;20087;-82
2023/05/20 06:47:17;;;;;;;3.13;0.80;;;14.10;99.90;;;;;;5045220;28;20052;-82
2023/05/20 06:49:43;;;;;;;2.35;0.57;;;14.20;99.90;;;;;;5065100;28;20037;-82
2023/05/20 06:52:10;;;;;;;1.80;0.60;;;14.20;99.90;;;;;;5048590;28;20417;-83
2023/05/20 06:54:40;;;;;;;0.82;0.50;;;14.30;99.90;;;;;;5048373;28;20045;-82
2023/05/20 06:57:09;;;;;;;2.33;1.08;;;14.40;99.90;;;;;;5048903;28;20049;-82
2023/05/20 06:59:36;;;;;;;0.75;0.50;;;14.40;99.90;;;;;;5048375;28;20044;-82
2023/05/20 07:02:02;;;;;;;1.38;0.40;;;14.50;99.90;;;;;;5065438;28;20052;-82
2023/05/20 07:04:28;;;;;;;3.80;0.63;;;14.60;99.90;;;;;;5064551;28;20044;-82
2023/05/20 07:06:54;;;;;;;3.85;0.63;;;14.70;99.90;;;;;;5031659;28;20097;-82
2023/05/20 07:09:20;;;;;;;1.80;0.63;;;14.70;99.90;;;;;;5048018;28;20044;-82
2023/05/20 07:11:45;;;;;;;1.63;0.55;;;14.80;99.90;;;;;;5047857;28;20051;-82
2023/05/20 07:14:11;;;;;;;3.00;0.60;;;14.90;99.90;;;;;;5031723;28;20067;-82
2023/05/20 07:16:37;;;;;;;1.67;0.63;;;15.00;99.90;;;;;;5047591;28;20072;-82
2023/05/20 07:19:03;;;;;;;2.40;0.70;;;15.10;99.90;;;;;;5048973;28;20098;-82
2023/05/20 07:21:29;;;;;;;1.00;0.40;;;15.20;99.90;;;;;;5047693;28;20072;-82
2023/05/20 07:23:55;;;;;;;2.78;0.60;;;15.20;99.90;;;;;;5048216;28;20732;-82
2023/05/20 07:26:21;;;;;;;2.10;0.60;;;15.30;99.90;;;;;;5030920;28;20040;-81
2023/05/20 07:28:47;;;;;;;1.15;0.50;;;15.40;99.90;;;;;;5047088;28;20056;-82
2023/05/20 07:31:12;;;;;;;3.08;0.60;;;15.50;99.90;;;;;;5064475;28;20048;-82
2023/05/20 07:33:38;;;;;;;2.92;0.63;;;15.60;99.90;;;;;;5063846;28;20083;-82
2023/05/20 07:36:04;;;;;;;3.05;0.60;;;15.70;99.90;;;;;;5064680;28;20080;-82
2023/05/20 07:38:31;;;;;;;1.00;0.47;;;15.80;99.90;;;;;;5047695;28;20075;-82
2023/05/20 07:40:57;;;;;;;2.92;0.75;;;15.80;99.90;;;;;;5047930;28;20097;-83
2023/05/20 07:43:23;;;;;;;3.05;0.95;;;15.90;99.90;;;;;;5047394;28;20037;-83
2023/05/20 07:45:48;;;;;;;2.05;0.47;;;16.00;99.90;;;;;;5047441;28;20044;-83
2023/05/20 07:48:14;;;;;;;1.90;0.63;;;16.60;99.90;;;;;;5047930;28;20461;-83
2023/05/20 07:50:40;;;;;;;2.42;0.88;;;16.10;99.90;;;;;;5063986;28;20474;-83
2023/05/20 07:53:06;;;;;;;4.38;0.98;;;16.20;99.90;;;;;;5064743;28;20060;-82
2023/05/20 07:55:35;;;;;;;1.20;0.38;;;16.20;99.90;;;;;;5047083;28;20127;-83
2023/05/20 07:58:01;;;;;;;5.38;1.00;;;16.30;99.90;;;;;;5047460;28;20532;-83
2023/05/20 08:00:27;;;;;;;1.85;0.88;;;16.40;99.90;;;;;;5062540;28;20058;-83
2023/05/20 08:02:53;;;;;;;1.42;0.60;;;16.50;99.90;;;;;;5047163;28;20040;-83
2023/05/20 08:05:19;;;;;;;1.27;0.50;;;16.60;99.90;;;;;;5064322;28;20032;-83
2023/05/20 08:07:45;;;;;;;1.08;0.40;;;16.80;99.90;;;;;;5047016;28;20040;-83
2023/05/20 08:10:10;;;;;;;3.17;1.02;;;16.90;99.90;;;;;;5047518;28;20084;-83
2023/05/20 08:12:36;;;;;;;0.90;0.40;;;17.00;99.90;;;;;;5063304;28;20072;-83
2023/05/20 08:15:03;;;;;;;1.33;0.40;;;17.00;99.90;;;;;;5063901;28;20127;-83
2023/05/20 08:17:29;;;;;;;1.40;0.47;;;17.10;99.90;;;;;;5063223;28;20040;-83
2023/05/20 08:19:54;;;;;;;1.50;0.60;;;17.20;99.90;;;;;;5063398;28;20076;-83
2023/05/20 08:22:20;;;;;;;0.93;0.50;;;17.30;99.90;;;;;;5046533;28;20087;-83
2023/05/20 08:24:46;;;;;;;2.45;0.50;;;17.30;99.90;;;;;;5013452;28;20079;-83
2023/05/20 08:27:11;;;;;;;2.22;0.70;;;17.40;99.90;;;;;;5063444;28;20051;-83
2023/05/20 08:29:37;;;;;;;2.90;0.70;;;17.50;99.90;;;;;;5063229;28;20057;-83
2023/05/20 08:32:03;;;;;;;1.83;0.50;;;17.50;99.90;;;;;;5030324;28;20131;-83
2023/05/20 08:34:29;;;;;;;0.85;0.35;;;17.60;99.90;;;;;;5046329;28;20080;-83
2023/05/20 08:36:56;;;;;;;2.13;0.40;;;17.70;99.90;;;;;;5063260;28;20087;-82
2023/05/20 08:39:22;;;;;;;0.90;0.40;;;17.80;99.90;;;;;;5030171;28;20052;-82
2023/05/20 08:41:48;;;;;;;2.55;0.52;;;18.00;99.90;;;;;;5062698;28;20048;-82
2023/05/20 08:44:16;;;;;;;1.38;0.50;;;18.00;99.90;;;;;;5046760;28;20109;-82
2023/05/20 08:46:42;;;;;;;4.10;0.55;;;18.00;99.90;;;;;;5062639;28;20544;-83
2023/05/20 08:49:08;;;;;;;3.38;0.60;;;18.10;99.90;;;;;;5013955;28;20508;-82
2023/05/20 08:51:36;;;;;;;2.35;0.50;;;18.30;99.90;;;;;;5045993;28;20250;-83
2023/05/20 08:54:02;;;;;;;1.05;0.68;;;18.30;99.90;;;;;;5046780;28;20048;-82
2023/05/20 08:56:28;;;;;;;2.30;0.50;;;18.40;99.90;;;;;;5046228;28;20429;-82
2023/05/20 08:58:54;;;;;;;0.98;0.50;;;18.40;99.90;;;;;;5063081;28;20132;-82
2023/05/20 09:01:24;;;;;;;2.28;0.95;;;18.20;99.90;;;;;;5046512;28;20565;-83
2023/05/20 09:03:50;;;;;;;1.58;0.60;;;18.60;99.90;;;;;;5062750;28;20104;-82
2023/05/20 09:06:20;;;;;;;1.65;0.68;;;18.60;99.90;;;;;;5063110;28;20139;-83
2023/05/20 09:08:49;;;;;;;2.13;0.45;;;18.70;99.90;;;;;;5062313;28;20128;-82
2023/05/20 09:11:14;;;;;;;2.00;0.50;;;18.80;99.90;;;;;;5062305;28;20060;-82
2023/05/20 09:13:40;;;;;;;1.10;0.60;;;18.90;99.90;;;;;;5046031;28;20036;-83
2023/05/20 09:16:08;;;;;;;1.27;0.50;;;18.90;99.90;;;;;;5062148;28;20040;-82
2023/05/20 09:18:38;;;;;;;3.58;0.70;;;19.00;99.90;;;;;;5046498;28;20169;-82
2023/05/20 09:21:07;;;;;;;4.07;0.70;;;19.10;99.90;;;;;;5045663;28;20049;-82
2023/05/20 09:23:37;;;;;;;1.63;0.68;;;19.20;99.90;;;;;;5046139;28;20057;-82
2023/05/20 09:26:03;;;;;;;0.85;0.52;;;19.30;99.90;;;;;;5045816;28;20044;-82
2023/05/20 09:28:29;;;;;;;1.35;0.65;;;19.40;99.90;;;;;;5061717;28;20123;-82
2023/05/20 09:30:58;;;;;;;0.82;0.60;;;19.40;99.90;;;;;;5062448;28;20135;-82
2023/05/20 09:33:30;;;;;;;1.65;0.55;;;19.60;99.90;;;;;;5061817;28;20123;-82
2023/05/20 09:36:23;;;;;;;1.40;0.60;;;19.50;99.90;;;;;;5046763;28;20521;-83
2023/05/20 09:38:54;;;;;;;1.48;0.63;;;19.50;99.90;;;;;;5059424;28;20706;-82
2023/05/20 09:41:23;;;;;;;0.90;0.40;;;19.60;99.90;;;;;;5062139;28;20493;-82
2023/05/20 09:43:51;;;;;;;1.80;0.50;;;19.70;99.90;;;;;;5029292;28;20044;-82
2023/05/20 09:46:17;;;;;;;1.75;0.52;;;19.80;99.90;;;;;;5045400;28;20565;-82
2023/05/20 09:48:43;;;;;;;2.33;0.52;;;19.90;99.90;;;;;;5045957;28;20106;-82
2023/05/20 09:51:10;;;;;;;2.25;0.68;;;19.80;99.90;;;;;;5061970;28;20067;-83
2023/05/20 09:53:36;;;;;;;2.35;0.70;;;19.90;99.90;;;;;;5045845;28;20500;-83
2023/05/20 09:56:02;;;;;;;5.20;0.90;;;20.00;99.90;;;;;;5061842;28;20044;-82
2023/05/20 09:58:29;;;;;;;3.22;0.60;;;20.10;99.90;;;;;;5045193;28;20045;-82
2023/05/20 10:00:55;;;;;;;4.18;0.70;;;20.20;99.90;;;;;;5062495;28;20565;-82
2023/05/20 10:03:23;;;;;;;1.00;0.60;;;20.20;99.60;;;;;;5045831;28;20045;-82
2023/05/20 10:06:19;;;;;;;2.88;0.55;;;20.30;99.40;;;;;;5046306;28;20101;-82
2023/05/20 10:09:27;;;;;;;0.95;0.50;;;20.40;99.30;;;;;;5044829;28;20052;-82
2023/05/20 10:11:55;;;;;;;3.05;0.45;;;20.40;99.10;;;;;;5061416;28;20044;-82
2023/05/20 10:14:27;;;;;;;1.48;0.47;;;20.30;99.50;;;;;;5062346;28;20041;-82
2023/05/20 10:16:56;;;;;;;0.98;0.63;;;20.40;99.50;;;;;;5061688;28;20504;-82
2023/05/20 10:19:31;;;;;;;2.33;0.77;;;20.40;99.50;;;;;;5045206;28;20502;-82
2023/05/20 10:22:01;;;;;;;2.55;0.90;;;20.40;99.00;;;;;;5061699;28;20245;-82
2023/05/20 10:24:31;;;;;;;2.70;0.60;;;20.40;99.10;;;;;;5064089;28;20516;-82
2023/05/20 10:26:59;;;;;;;2.88;0.80;;;20.40;99.20;;;;;;5049719;28;20054;-82
2023/05/20 10:29:25;;;;;;;3.35;0.65;;;20.50;99.30;;;;;;5032599;28;20056;-82
2023/05/20 10:31:52;;;;;;;1.70;0.70;;;20.50;99.10;;;;;;5032661;28;20041;-82
2023/05/20 10:34:19;;;;;;;1.15;0.60;;;20.30;98.80;;;;;;5048587;28;20048;-82
2023/05/20 10:36:54;;;;;;;1.67;0.60;;;20.00;98.90;;;;;;5048856;28;20131;-82
2023/05/20 10:39:28;;;;;;;3.13;0.55;;;19.90;99.00;;;;;;5066045;28;20127;-82
2023/05/20 10:42:14;;;;;;;1.90;0.50;;;19.90;99.20;;;;;;5048670;28;20043;-83
2023/05/20 10:44:45;;;;;;;2.10;0.63;;;19.90;99.30;;;;;;5065218;28;20150;-83
2023/05/20 10:47:11;;;;;;;1.25;0.70;;;20.00;99.60;;;;;;5064917;28;20044;-82
2023/05/20 10:49:44;;;;;;;4.30;0.95;;;20.20;99.50;;;;;;5065267;28;20041;-82
2023/05/20 10:52:12;;;;;;;2.75;0.70;;;20.40;99.20;;;;;;5049345;28;20052;-82
2023/05/20 10:54:59;;;;;;;4.35;0.75;;;20.40;99.10;;;;;;5048205;28;20045;-83
2023/05/20 10:57:28;;;;;;;2.97;0.65;;;20.20;98.90;;;;;;5048843;28;20047;-83
2023/05/20 10:59:55;;;;;;;1.92;0.70;;;19.90;99.20;;;;;;5031611;28;20055;-82
2023/05/20 11:02:27;;;;;;;3.00;0.80;;;19.70;99.50;;;;;;5065432;28;20056;-82
2023/05/20 11:04:59;;;;;;;;;;;19.60;99.70;;;;;;5065412;28;20083;-82
2023/05/20 11:07:27;;;;;;;3.35;0.98;;;19.80;99.90;;;;;;5065345;28;20284;-83
2023/05/20 11:09:54;;;;;;;3.05;0.75;;;19.90;99.90;;;;;;5065669;28;20040;-82
2023/05/20 11:12:21;;;;;;;2.95;1.00;;;19.90;99.90;;;;;;5064804;28;20055;-82
2023/05/20 11:14:51;;;;;;;2.67;0.85;;;20.00;99.90;;;;;;5048998;28;20062;-82
2023/05/20 11:17:18;;;;;;;1.80;0.80;;;20.00;99.90;;;;;;5031613;28;20094;-83
2023/05/20 11:19:45;;;;;;;3.15;1.27;;;20.10;99.90;;;;;;5064481;28;20123;-83
2023/05/20 11:22:11;;;;;;;2.05;0.90;;;20.00;99.80;;;;;;5048287;28;20075;-83
2023/05/20 11:24:36;;;;;;;3.17;1.30;;;19.60;99.80;;;;;;5048362;28;20425;-83
2023/05/20 11:27:02;;;;;;;2.80;0.80;;;19.50;99.90;;;;;;5064620;28;20052;-83
2023/05/20 11:29:31;;;;;;;1.70;0.95;;;19.40;99.90;;;;;;5031555;28;20405;-82
2023/05/20 11:31:58;;;;;;;5.25;1.30;;;19.40;99.90;;;;;;5065077;28;20433;-83
2023/05/20 11:34:23;;;;;;;2.83;1.17;;;19.50;99.90;;;;;;5047427;28;20067;-82
2023/05/20 11:36:56;;;;;;;2.38;1.08;;;19.80;99.90;;;;;;5064379;28;20406;-82
2023/05/20 11:39:22;;;;;;;;;;;20.10;99.90;;;;;;5048376;28;20048;-83
2023/05/20 11:41:47;;;;;;;3.13;1.05;;;20.20;99.90;;;;;;5047775;28;19931;-83
2023/05/20 11:44:13;;;;;;;6.13;1.02;;;20.20;99.90;;;;;;5064592;28;20494;-83
2023/05/20 11:46:44;;;;;;;3.83;0.90;;;20.20;99.90;;;;;;5014278;28;20110;-83
2023/05/20 11:49:12;;;;;;;3.80;1.15;;;20.40;99.90;;;;;;5064228;28;20055;-83
2023/05/20 11:51:38;;;;;;;1.92;0.80;;;20.60;99.90;;;;;;5063731;28;20044;-83
2023/05/20 11:54:06;;;;;;;3.65;1.05;;;21.00;99.90;;;;;;5063827;28;20037;-84
2023/05/20 11:56:35;;;;;;;1.27;0.70;;;21.20;99.90;;;;;;5048007;28;20045;-83
2023/05/20 11:59:02;;;;;;;5.25;1.20;;;21.20;99.90;;;;;;5047904;28;20044;-83
2023/05/20 12:01:36;;;;;;;2.17;0.93;;;21.20;99.80;;;;;;5047524;28;20052;-83
2023/05/20 12:04:04;;;;;;;3.45;1.20;;;21.30;99.90;;;;;;5063554;28;20049;-83
2023/05/20 12:06:30;;;;;;;4.65;1.20;;;21.40;99.60;;;;;;5030797;28;20040;-83
2023/05/20 12:08:58;;;;;;;3.00;1.08;;;21.60;99.50;;;;;;5063701;28;20072;-83
2023/05/20 12:11:24;;;;;;;2.10;1.00;;;21.80;99.70;;;;;;5047616;28;20433;-84
2023/05/20 12:13:50;;;;;;;2.97;1.13;;;22.00;99.40;;;;;;5047759;28;20041;-84
2023/05/20 12:16:16;;;;;;;2.78;1.38;;;22.10;99.10;;;;;;5047213;28;20131;-83
2023/05/20 12:18:41;;;;;;;3.50;1.20;;;22.20;99.00;;;;;;5047300;28;20128;-84
2023/05/20 12:21:07;;;;;;;1.90;0.90;;;22.20;98.60;;;;;;5047201;28;20040;-83
2023/05/20 12:23:33;;;;;;;4.82;1.30;;;22.00;98.50;;;;;;5063479;28;20421;-84
2023/05/20 12:25:59;;;;;;;2.65;0.98;;;21.90;98.50;;;;;;5046645;28;20091;-83
2023/05/20 12:28:25;;;;;;;4.30;1.38;;;21.60;98.30;;;;;;5046162;28;20153;-83
2023/05/20 12:30:51;;;;;;;5.75;1.48;;;21.30;98.60;;;;;;5030480;28;20114;-82
2023/05/20 12:33:16;;;;;;;6.30;1.58;;;21.10;98.90;;;;;;5063049;28;20051;-83
2023/05/20 12:35:43;;;;;;;2.10;1.20;;;21.00;99.00;;;;;;5063976;28;20395;-83
2023/05/20 12:38:09;;;;;;;3.03;1.17;;;21.20;99.10;;;;;;5046778;28;20342;-83
2023/05/20 12:40:35;;;;;;;1.58;1.10;;;21.30;98.90;;;;;;5047428;28;20102;-83
2023/05/20 12:43:03;;;;;;;4.00;1.38;;;21.50;98.80;;;;;;5046093;28;20036;-83
2023/05/20 12:45:29;;;;;;;3.15;1.45;;;21.50;98.50;;;;;;5046130;28;20041;-83
2023/05/20 12:47:56;;;;;;;4.20;1.20;;;21.40;98.60;;;;;;5046450;28;20067;-83